createdAt,value
2024-03-14T00:02:58.564Z,93.66
2024-03-14T00:06:08.323Z,96.22
2024-03-14T00:09:15.734Z,104.73
2024-03-14T00:12:22.298Z,121.10
2024-03-14T00:15:28.698Z,88.07
2024-03-14T00:18:34.608Z,82.84
2024-03-14T00:21:44.396Z,87.31
2024-03-14T00:24:51.352Z,87.85
2024-03-14T00:27:58.860Z,92.05
2024-03-14T00:31:05.579Z,92.28
2024-03-14T00:34:13.582Z,87.08
2024-03-14T00:37:21.697Z,85.34
2024-03-14T00:40:28.014Z,91.86
2024-03-14T00:43:34.459Z,91.68
2024-03-14T00:46:41.594Z,91.46
2024-03-14T00:49:47.006Z,92.15
2024-03-14T00:52:55.915Z,99.46
2024-03-14T00:56:03.222Z,105.06
2024-03-14T00:59:11.105Z,102.93
2024-03-14T01:02:16.730Z,96.24
2024-03-14T01:05:22.920Z,97.68
2024-03-14T01:08:31.654Z,96.20
2024-03-14T01:11:37.844Z,97.58
2024-03-14T01:14:43.280Z,96.78
2024-03-14T01:17:49.627Z,94.03
2024-03-14T01:20:55.426Z,102.27
2024-03-14T01:24:05.134Z,105.39
2024-03-14T01:27:11.009Z,105.98
2024-03-14T01:30:17.582Z,105.38
2024-03-14T01:33:23.162Z,116.03
2024-03-14T01:36:30.124Z,113.10
2024-03-14T01:39:39.006Z,113.21
2024-03-14T01:42:47.554Z,111.23
2024-03-14T01:45:52.889Z,106.76
2024-03-14T01:48:59.715Z,103.23
2024-03-14T01:52:05.469Z,101.97
2024-03-14T01:55:14.919Z,104.73
2024-03-14T01:58:27.913Z,94.76
2024-03-14T02:01:34.157Z,91.82
2024-03-14T02:04:57.134Z,95.35
2024-03-14T02:08:03.356Z,93.03
2024-03-14T02:11:14.241Z,91.46
2024-03-14T02:14:20.403Z,95.73
2024-03-14T02:17:25.785Z,103.09
2024-03-14T02:20:32.122Z,103.24
2024-03-14T02:23:40.236Z,97.93
2024-03-14T02:26:46.665Z,101.17
2024-03-14T02:29:52.071Z,108.42
2024-03-14T02:32:58.290Z,106.71
2024-03-14T02:36:04.247Z,101.82
2024-03-14T02:39:13.004Z,98.84
2024-03-14T02:42:19.377Z,95.89
2024-03-14T02:45:26.046Z,96.11
2024-03-14T02:48:32.397Z,94.72
2024-03-14T02:51:37.791Z,92.20
2024-03-14T02:54:46.849Z,92.03
2024-03-14T02:57:52.213Z,93.85
2024-03-14T03:00:58.837Z,92.73
2024-03-14T03:04:04.429Z,93.55
2024-03-14T03:07:11.228Z,90.31
2024-03-14T03:10:23.965Z,89.18
2024-03-14T03:13:30.304Z,85.77
2024-03-14T03:16:35.715Z,85.80
2024-03-14T03:19:42.054Z,84.75
2024-03-14T03:23:00.163Z,83.81
2024-03-14T03:26:09.580Z,87.84
2024-03-14T03:29:15.557Z,91.88
2024-03-14T03:32:22.189Z,95.99
2024-03-14T03:35:27.530Z,96.18
2024-03-14T03:38:33.868Z,90.53
2024-03-14T03:41:39.240Z,92.62
2024-03-14T03:44:46.492Z,99.15
2024-03-14T03:47:49.410Z,97.78
2024-03-14T03:50:56.405Z,98.91
2024-03-14T03:53:59.172Z,99.15
2024-03-14T03:57:08.448Z,98.63
2024-03-14T04:00:43.629Z,101.42
2024-03-14T04:03:52.437Z,98.44
2024-03-14T04:06:57.841Z,95.06
2024-03-14T04:10:04.403Z,96.80
2024-03-14T04:13:16.721Z,92.95
2024-03-14T04:16:23.171Z,91.38
2024-03-14T04:19:28.467Z,90.14
2024-03-14T04:22:35.882Z,88.79
2024-03-14T04:25:42.321Z,87.14
2024-03-14T04:28:51.410Z,87.69
2024-03-14T04:31:58.379Z,87.93
2024-03-14T04:35:05.455Z,89.66
2024-03-14T04:38:10.902Z,92.05
2024-03-14T04:41:18.620Z,93.91
2024-03-14T04:44:28.263Z,94.65
2024-03-14T04:47:34.533Z,91.92
2024-03-14T04:50:41.692Z,89.03
2024-03-14T04:53:48.002Z,88.81
2024-03-14T04:56:53.471Z,87.81
2024-03-14T05:00:02.478Z,84.61
2024-03-14T05:03:08.823Z,84.68
2024-03-14T05:06:15.048Z,84.35
2024-03-14T05:09:23.311Z,82.69
2024-03-14T05:12:29.813Z,83.30
2024-03-14T05:15:38.462Z,84.47
2024-03-14T05:18:45.556Z,86.28
2024-03-14T05:21:52.144Z,89.24
2024-03-14T05:25:00.052Z,90.74
2024-03-14T05:28:08.036Z,90.34
2024-03-14T05:31:20.769Z,91.87
2024-03-14T05:34:27.069Z,89.46
2024-03-14T05:37:33.352Z,90.25
2024-03-14T05:40:42.601Z,89.79
2024-03-14T05:43:49.287Z,90.93
2024-03-14T05:47:00.253Z,95.55
2024-03-14T05:50:11.901Z,93.51
2024-03-14T05:53:21.422Z,95.69
2024-03-14T05:56:27.667Z,95.94
2024-03-14T05:59:34.412Z,93.14
2024-03-14T06:02:43.378Z,89.97
2024-03-14T06:05:51.449Z,89.34
2024-03-14T06:08:57.729Z,92.30
2024-03-14T06:12:03.405Z,94.97
2024-03-14T06:15:13.544Z,94.16
2024-03-14T06:18:23.444Z,96.73
2024-03-14T06:21:31.299Z,98.54
2024-03-14T06:24:36.704Z,99.49
2024-03-14T06:27:43.222Z,89.13
2024-03-14T06:30:51.151Z,90.29
2024-03-14T06:34:00.001Z,88.62
2024-03-14T06:37:05.728Z,87.80
2024-03-14T06:40:15.584Z,84.63
2024-03-14T06:43:22.943Z,84.57
2024-03-14T06:46:30.531Z,82.76
2024-03-14T06:49:40.120Z,83.11
2024-03-14T06:52:46.367Z,84.55
2024-03-14T06:55:52.640Z,85.87
2024-03-14T06:58:58.976Z,84.40
2024-03-14T07:02:04.249Z,86.48
2024-03-14T07:05:17.080Z,84.92
2024-03-14T07:08:22.774Z,86.39
2024-03-14T07:11:30.220Z,88.15
2024-03-14T07:14:35.683Z,87.90
2024-03-14T07:17:42.702Z,88.55
2024-03-14T07:20:51.132Z,86.60
2024-03-14T07:23:57.637Z,89.55
2024-03-14T07:27:04.968Z,91.51
2024-03-14T07:30:16.497Z,93.51
2024-03-14T07:33:22.234Z,96.83
2024-03-14T07:36:32.092Z,96.92
2024-03-14T07:39:37.871Z,94.68
2024-03-14T07:42:44.751Z,95.50
2024-03-14T07:45:50.547Z,96.25
2024-03-14T07:48:57.487Z,94.43
2024-03-14T07:52:07.071Z,92.72
2024-03-14T07:55:13.262Z,95.32
2024-03-14T07:58:18.724Z,93.76
2024-03-14T08:01:29.441Z,91.41
2024-03-14T08:04:36.229Z,91.30
2024-03-14T08:07:44.972Z,91.56
2024-03-14T08:10:50.477Z,85.63
2024-03-14T08:14:00.333Z,80.99
2024-03-14T08:17:12.908Z,83.27
2024-03-14T08:20:23.466Z,80.98
2024-03-14T08:23:33.777Z,72.76
2024-03-14T08:26:40.201Z,69.04
2024-03-14T08:29:46.312Z,67.53
2024-03-14T08:32:53.512Z,65.81
2024-03-14T08:35:58.942Z,64.33
2024-03-14T08:39:08.157Z,57.81
2024-03-14T08:42:13.981Z,53.21
2024-03-14T08:45:20.364Z,50.74
2024-03-14T08:48:26.215Z,49.41
2024-03-14T08:51:33.495Z,50.51
2024-03-14T08:54:46.528Z,53.13
2024-03-14T08:57:53.206Z,50.93
2024-03-14T09:00:59.810Z,52.26
2024-03-14T09:04:08.965Z,51.70
2024-03-14T09:07:16.069Z,51.75
2024-03-14T09:10:27.492Z,42.34
2024-03-14T09:13:33.455Z,45.98
2024-03-14T09:16:40.034Z,38.56
2024-03-14T09:19:45.665Z,38.33
2024-03-14T09:22:55.776Z,39.13
2024-03-14T09:26:03.881Z,37.71
2024-03-14T09:29:10.090Z,36.58
2024-03-14T09:32:15.406Z,34.95
2024-03-14T09:35:28.432Z,34.29
2024-03-14T09:38:36.351Z,34.47
2024-03-14T09:41:47.050Z,33.60
2024-03-14T09:44:52.490Z,31.49
2024-03-14T09:48:00.497Z,30.85
2024-03-14T09:51:13.579Z,31.55
2024-03-14T09:54:21.489Z,31.80
2024-03-14T09:57:31.165Z,30.29
2024-03-14T10:00:37.637Z,28.30
2024-03-14T10:03:43.549Z,26.67
2024-03-14T10:06:49.994Z,25.56
2024-03-14T10:09:55.529Z,23.23
2024-03-14T10:13:04.624Z,21.98
2024-03-14T10:16:10.447Z,22.27
2024-03-14T10:19:17.205Z,23.09
2024-03-14T10:22:22.806Z,22.30
2024-03-14T10:25:29.762Z,21.05
2024-03-14T10:28:41.009Z,20.64
2024-03-14T10:31:47.577Z,18.30
2024-03-14T10:34:53.322Z,19.58
2024-03-14T10:38:02.373Z,20.47
2024-03-14T10:41:11.335Z,18.54
2024-03-14T10:44:26.363Z,17.33
2024-03-14T10:47:34.301Z,18.85
2024-03-14T10:50:42.601Z,18.43
2024-03-14T10:53:51.848Z,17.33
2024-03-14T10:57:01.181Z,16.84
2024-03-14T11:00:15.593Z,17.66
2024-03-14T11:03:24.118Z,18.34
2024-03-14T11:06:41.128Z,17.45
2024-03-14T11:10:09.831Z,17.67
2024-03-14T11:13:27.765Z,13.58
2024-03-14T11:16:38.853Z,14.72
2024-03-14T11:19:54.338Z,13.45
2024-03-14T11:23:07.153Z,14.60
2024-03-14T11:26:20.768Z,14.46
2024-03-14T11:29:28.677Z,14.37
2024-03-14T11:32:36.881Z,12.09
2024-03-14T11:35:45.482Z,11.69
2024-03-14T11:38:52.090Z,13.08
2024-03-14T11:42:12.894Z,12.29
2024-03-14T11:45:20.215Z,10.96
2024-03-14T11:48:32.838Z,9.04
2024-03-14T11:51:42.779Z,9.00
2024-03-14T11:54:49.852Z,9.72
2024-03-14T11:57:55.710Z,11.67
2024-03-14T12:01:02.194Z,12.77
2024-03-14T12:04:14.946Z,11.80
2024-03-14T12:07:22.392Z,10.92
2024-03-14T12:10:28.286Z,11.13
2024-03-14T12:13:34.603Z,11.98
2024-03-14T12:16:47.538Z,11.72
2024-03-14T12:20:02.532Z,12.02
2024-03-14T12:23:10.429Z,12.37
2024-03-14T12:26:16.801Z,12.61
2024-03-14T12:29:22.525Z,12.26
2024-03-14T12:32:31.362Z,12.26
2024-03-14T12:35:39.704Z,11.81
2024-03-14T12:38:52.002Z,11.99
2024-03-14T12:41:58.102Z,12.44
2024-03-14T12:45:04.783Z,11.83
2024-03-14T12:48:12.472Z,12.31
2024-03-14T12:51:25.804Z,11.27
2024-03-14T12:54:39.879Z,12.19
2024-03-14T12:57:48.595Z,12.22
2024-03-14T13:00:58.398Z,11.99
2024-03-14T13:04:08.484Z,12.20
2024-03-14T13:07:21.069Z,12.50
2024-03-14T13:10:28.328Z,10.86
2024-03-14T13:13:34.895Z,11.60
2024-03-14T13:16:42.241Z,12.07
2024-03-14T13:19:59.372Z,12.14
2024-03-14T13:23:08.223Z,12.27
2024-03-14T13:26:19.291Z,12.52
2024-03-14T13:29:26.865Z,12.14
2024-03-14T13:32:32.264Z,12.77
2024-03-14T13:35:41.919Z,12.22
2024-03-14T13:38:50.674Z,12.20
2024-03-14T13:41:59.739Z,11.92
2024-03-14T13:45:09.155Z,12.14
2024-03-14T13:48:19.280Z,12.66
2024-03-14T13:51:24.740Z,12.52
2024-03-14T13:54:34.715Z,12.83
2024-03-14T13:57:40.547Z,12.32
2024-03-14T14:00:51.684Z,12.75
2024-03-14T14:04:00.910Z,12.62
2024-03-14T14:07:07.419Z,12.39
2024-03-14T14:10:16.262Z,12.53
2024-03-14T14:13:22.716Z,12.46
2024-03-14T14:16:30.589Z,22.87
2024-03-14T14:19:38.181Z,13.62
2024-03-14T14:22:43.669Z,13.27
2024-03-14T14:25:53.269Z,12.93
2024-03-14T14:28:59.162Z,13.16
2024-03-14T14:32:05.688Z,12.83
2024-03-14T14:35:11.637Z,13.58
2024-03-14T14:38:20.036Z,14.97
2024-03-14T14:41:28.632Z,16.66
2024-03-14T14:44:34.857Z,18.00
2024-03-14T14:47:42.203Z,20.28
2024-03-14T14:50:48.745Z,20.08
2024-03-14T14:53:54.118Z,20.26
2024-03-14T14:57:07.235Z,20.74
2024-03-14T15:00:15.871Z,19.65
2024-03-14T15:03:23.698Z,19.30
2024-03-14T15:06:29.256Z,21.08
2024-03-14T15:09:35.763Z,23.10
2024-03-14T15:12:50.665Z,22.75
2024-03-14T15:16:09.431Z,23.10
2024-03-14T15:19:17.036Z,23.89
2024-03-14T15:22:23.958Z,23.64
2024-03-14T15:25:29.962Z,24.44
2024-03-14T15:28:38.950Z,24.41
2024-03-14T15:31:44.414Z,24.16
2024-03-14T15:34:50.920Z,24.86
2024-03-14T15:37:59.793Z,28.12
2024-03-14T15:41:06.063Z,28.10
2024-03-14T15:44:14.231Z,24.91
2024-03-14T15:47:20.331Z,26.07
2024-03-14T15:50:25.910Z,28.24
2024-03-14T15:53:34.153Z,25.92
2024-03-14T15:56:39.506Z,27.41
2024-03-14T15:59:49.018Z,26.90
2024-03-14T16:02:56.706Z,27.23
2024-03-14T16:06:05.391Z,27.97
2024-03-14T16:09:11.457Z,28.79
2024-03-14T16:12:18.213Z,29.99
2024-03-14T16:15:26.278Z,30.86
2024-03-14T16:18:35.466Z,30.85
2024-03-14T16:21:41.953Z,31.92
2024-03-14T16:24:48.220Z,32.92
2024-03-14T16:27:54.294Z,33.80
2024-03-14T16:31:06.857Z,33.68
2024-03-14T16:34:12.406Z,35.46
2024-03-14T16:37:18.796Z,38.13
2024-03-14T16:40:24.175Z,38.93
2024-03-14T16:43:30.296Z,39.06
2024-03-14T16:46:39.851Z,39.76
2024-03-14T16:49:46.114Z,42.01
2024-03-14T16:52:52.976Z,41.72
2024-03-14T16:55:59.146Z,42.28
2024-03-14T16:59:07.593Z,41.80
2024-03-14T17:02:18.116Z,41.47
2024-03-14T17:05:23.748Z,42.57
2024-03-14T17:08:30.126Z,43.21
2024-03-14T17:11:36.144Z,43.18
2024-03-14T17:14:42.477Z,46.21
2024-03-14T17:17:51.108Z,50.00
2024-03-14T17:21:00.073Z,49.21
2024-03-14T17:24:05.872Z,49.30
2024-03-14T17:27:13.914Z,50.18
2024-03-14T17:30:19.633Z,54.87
2024-03-14T17:33:29.754Z,52.25
2024-03-14T17:36:35.330Z,45.58
2024-03-14T17:39:43.202Z,46.11
2024-03-14T17:42:50.294Z,44.92
2024-03-14T17:45:57.055Z,44.05
2024-03-14T17:49:07.288Z,46.33
2024-03-14T17:52:14.006Z,48.22
2024-03-14T17:55:19.362Z,48.27
2024-03-14T17:58:25.558Z,49.44
2024-03-14T18:01:31.707Z,51.10
2024-03-14T18:04:40.573Z,51.18
2024-03-14T18:07:48.294Z,50.97
2024-03-14T18:10:54.770Z,51.84
2024-03-14T18:14:00.223Z,50.41
2024-03-14T18:17:06.738Z,52.70
2024-03-14T18:20:15.176Z,52.02
2024-03-14T18:23:21.525Z,52.89
2024-03-14T18:26:27.199Z,55.48
2024-03-14T18:29:33.415Z,54.26
2024-03-14T18:32:44.607Z,56.67
2024-03-14T18:35:54.377Z,53.02
2024-03-14T18:39:00.696Z,51.87
2024-03-14T18:42:10.791Z,50.99
2024-03-14T18:45:18.641Z,52.33
2024-03-14T18:48:25.639Z,51.80
2024-03-14T18:51:33.619Z,55.86
2024-03-14T18:54:48.213Z,58.85
2024-03-14T18:57:55.779Z,56.03
2024-03-14T19:01:08.114Z,52.12
2024-03-14T19:04:13.866Z,45.76
2024-03-14T19:07:22.757Z,45.50
2024-03-14T19:10:30.227Z,44.91
2024-03-14T19:13:40.423Z,43.15
2024-03-14T19:16:47.394Z,44.19
2024-03-14T19:19:54.313Z,42.73
2024-03-14T19:23:03.899Z,43.69
2024-03-14T19:26:10.622Z,45.90
2024-03-14T19:29:17.355Z,46.86
2024-03-14T19:32:23.607Z,48.35
2024-03-14T19:35:29.493Z,50.81
2024-03-14T19:38:38.542Z,52.80
2024-03-14T19:41:44.106Z,50.70
2024-03-14T19:44:50.442Z,51.33
2024-03-14T19:47:58.284Z,52.65
2024-03-14T19:51:05.219Z,52.56
2024-03-14T19:54:13.166Z,52.67
2024-03-14T19:57:19.378Z,54.40
2024-03-14T20:00:24.808Z,54.16
2024-03-14T20:03:30.999Z,53.41
2024-03-14T20:06:36.394Z,52.63
2024-03-14T20:09:45.358Z,52.79
2024-03-14T20:12:52.066Z,53.59
2024-03-14T20:15:59.202Z,55.14
2024-03-14T20:19:06.017Z,56.05
2024-03-14T20:22:14.064Z,56.12
2024-03-14T20:25:24.089Z,56.76
2024-03-14T20:28:30.772Z,55.64
2024-03-14T20:31:36.221Z,56.66
2024-03-14T20:34:46.923Z,56.06
2024-03-14T20:37:54.008Z,57.69
2024-03-14T20:41:06.935Z,59.13
2024-03-14T20:44:13.292Z,58.83
2024-03-14T20:47:20.445Z,58.62
2024-03-14T20:50:26.074Z,56.93
2024-03-14T20:53:35.211Z,56.51
2024-03-14T20:56:51.260Z,55.86
2024-03-14T21:00:02.097Z,56.33
2024-03-14T21:03:09.597Z,54.76
2024-03-14T21:06:15.941Z,56.11
2024-03-14T21:09:26.201Z,53.79
2024-03-14T21:12:39.626Z,53.14
2024-03-14T21:15:45.816Z,53.28
2024-03-14T21:18:55.387Z,55.47
2024-03-14T21:22:00.772Z,52.55
2024-03-14T21:25:08.571Z,54.88
2024-03-14T21:28:16.528Z,54.52
2024-03-14T21:31:22.889Z,54.44
2024-03-14T21:34:29.234Z,52.47
2024-03-14T21:37:35.516Z,51.64
2024-03-14T21:40:40.801Z,52.51
2024-03-14T21:43:49.898Z,53.24
2024-03-14T21:46:56.218Z,54.65
2024-03-14T21:50:04.869Z,51.46
2024-03-14T21:53:10.433Z,50.33
2024-03-14T21:56:16.763Z,49.18
2024-03-14T21:59:24.726Z,50.36
2024-03-14T22:02:30.869Z,48.94
2024-03-14T22:05:39.197Z,48.99
2024-03-14T22:08:45.691Z,48.98
2024-03-14T22:11:51.456Z,48.43
2024-03-14T22:15:01.271Z,49.30
2024-03-14T22:18:09.000Z,48.20
2024-03-14T22:21:15.880Z,50.25
2024-03-14T22:24:21.223Z,51.68
2024-03-14T22:27:27.441Z,53.60
2024-03-14T22:30:35.497Z,53.52
2024-03-14T22:33:42.509Z,51.52
2024-03-14T22:36:47.978Z,50.35
2024-03-14T22:39:54.286Z,51.79
2024-03-14T22:42:59.941Z,51.93
2024-03-14T22:46:10.242Z,52.54
2024-03-14T22:49:15.818Z,52.63
2024-03-14T22:52:22.670Z,54.03
2024-03-14T22:55:28.004Z,51.66
2024-03-14T22:58:34.175Z,52.11
2024-03-14T23:01:43.593Z,52.00
2024-03-14T23:04:49.865Z,53.50
2024-03-14T23:07:55.579Z,53.89
2024-03-14T23:11:01.869Z,54.49
2024-03-14T23:14:08.081Z,53.90
2024-03-14T23:17:19.352Z,53.40
2024-03-14T23:20:28.197Z,51.37
2024-03-14T23:23:34.367Z,51.10
2024-03-14T23:26:39.754Z,51.82
2024-03-14T23:29:45.891Z,51.99
2024-03-14T23:32:54.271Z,53.86
2024-03-14T23:36:00.534Z,52.38
2024-03-14T23:39:06.663Z,53.80
2024-03-14T23:42:13.486Z,54.54
2024-03-14T23:45:20.057Z,55.15
2024-03-14T23:48:31.212Z,55.06
2024-03-14T23:51:36.694Z,56.19
2024-03-14T23:54:43.247Z,56.43
2024-03-14T23:57:48.932Z,54.68
